Time;durP1;ratioP1;P1;durP2;ratioP2;P2;SDS_P1;SDS_P2;PMS_P1;PMS_P2;Temp;Humidity;BMP_temperature;BMP_pressure;BME280_temperature;BME280_humidity;BME280_pressure;Samples;Min_cycle;Max_cycle;Signal;HPM_P1;HPM_P2
2024/02/28 00:00:10;;;;;;;;;;;;;;;6.05;93.64;96762.28;30001;983;1886;-70
2024/02/28 00:00:42;;;;;;;;;;;;;;;6.07;93.42;96762.03;30001;970;1889;-67
2024/02/28 00:01:18;;;;;;;;;;;;;;;6.11;92.91;96759.63;30001;983;1877;-68
2024/02/28 00:01:51;;;;;;;;;;;;;;;6.14;93.22;96756.38;30001;983;1882;-67
2024/02/28 00:02:23;;;;;;;;;;;;;;;6.22;92.19;96761.25;30001;983;1886;-69
2024/02/28 00:02:54;;;;;;;;;;;;;;;6.28;91.25;96752.06;30001;983;1882;-69
2024/02/28 00:03:25;;;;;;;;;;;;;;;6.31;90.78;96759.63;30001;983;1886;-68
2024/02/28 00:03:56;;;;;;;;;;;;;;;6.30;90.63;96758.00;30001;982;1882;-68
2024/02/28 00:04:31;;;;;;;;;;;;;;;6.29;90.64;96762.59;30001;982;1887;-67
2024/02/28 00:05:05;;;;;;;;;;;;;;;6.29;90.94;96756.38;30001;982;1882;-67
2024/02/28 00:05:38;;;;;;;;;;;;;;;6.28;90.50;96760.16;30001;982;1887;-69
2024/02/28 00:06:12;;;;;;;;;;;;;;;6.25;90.58;96758.81;30001;983;1868;-67
2024/02/28 00:06:43;;;;;;;;;;;;;;;6.27;90.88;96761.22;30001;983;1877;-69
2024/02/28 00:07:15;;;;;;;;;;;;;;;6.26;91.00;96765.00;30001;983;1882;-53
2024/02/28 00:07:53;;;;;;;;;;;;;;;6.27;90.81;96758.53;30001;983;1886;-70
2024/02/28 00:08:24;;;;;;;;;;;;;;;6.26;91.22;96763.13;30001;983;1882;-53
2024/02/28 00:08:57;;;;;;;;;;;;;;;6.25;90.76;96753.41;30001;983;1887;-72
2024/02/28 00:09:29;;;;;;;;;;;;;;;6.23;91.19;96768.25;30001;983;1882;-72
2024/02/28 00:10:01;;;;;;;;;;;;;;;6.18;91.21;96765.56;30001;962;1907;-73
2024/02/28 00:10:32;;;;;;;;;;;;;;;6.14;91.96;96767.16;30001;983;1882;-70
2024/02/28 00:11:03;;;;;;;;;;;;;;;6.10;91.55;96764.19;30001;986;1878;-68
2024/02/28 00:11:34;;;;;;;;;;;;;;;6.13;91.79;96762.84;30001;982;1874;-69
2024/02/28 00:12:06;;;;;;;;;;;;;;;6.15;91.53;96760.69;30001;982;1874;-68
2024/02/28 00:12:38;;;;;;;;;;;;;;;6.15;91.69;96766.09;30001;982;1887;-67
2024/02/28 00:13:24;;;;;;;;;;;;;;;;;;;;;
2024/02/28 00:13:59;;;;;;;;;;;;;;;6.14;92.02;96769.84;30001;983;1877;-71
2024/02/28 00:14:32;;;;;;;;;;;;;;;6.14;91.79;96769.84;30001;983;1886;-69
2024/02/28 00:15:10;;;;;;;;;;;;;;;6.15;92.32;96760.69;30001;983;1882;-54
2024/02/28 00:15:47;;;;;;;;;;;;;;;6.19;91.28;96767.97;30001;983;1886;-67
2024/02/28 00:16:22;;;;;;;;;;;;;;;6.21;91.55;96770.41;30001;985;1874;-67
2024/02/28 00:16:53;;;;;;;;;;;;;;;6.20;91.64;96771.50;30001;983;1873;-53
2024/02/28 00:17:30;;;;;;;;;;;;;;;6.18;91.87;96770.94;30001;983;1874;-68
2024/02/28 00:18:03;;;;;;;;;;;;;;;6.17;91.87;96769.31;30001;982;1866;-71
2024/02/28 00:18:43;;;;;;;;;;;;;;;6.13;92.37;96770.94;30001;984;1874;-72
2024/02/28 00:19:15;;;;;;;;;;;;;;;6.09;92.39;96773.34;30001;982;1887;-67
2024/02/28 00:19:49;;;;;;;;;;;;;;;6.08;92.39;96770.91;30001;982;1882;-70
2024/02/28 00:20:30;;;;;;;;;;;;;;;6.07;92.19;96770.09;30001;982;1887;-52
2024/02/28 00:21:04;;;;;;;;;;;;;;;6.08;92.99;96773.62;30001;984;1883;-70
2024/02/28 00:21:34;;;;;;;;;;;;;;;6.11;92.70;96770.37;30001;983;1886;-66
2024/02/28 00:22:10;;;;;;;;;;;;;;;6.15;92.47;96777.66;30001;985;1869;-67
2024/02/28 00:22:43;;;;;;;;;;;;;;;6.16;92.27;96773.09;30001;983;1877;-66
2024/02/28 00:23:15;;;;;;;;;;;;;;;6.15;92.42;96774.97;30001;985;1882;-53
2024/02/28 00:23:48;;;;;;;;;;;;;;;6.14;92.10;96770.66;30001;983;1886;-68
2024/02/28 00:24:25;;;;;;;;;;;;;;;6.14;92.68;96772.56;30001;983;1882;-69
2024/02/28 00:25:02;;;;;;;;;;;;;;;6.14;92.42;96780.62;30001;983;1887;-67
2024/02/28 00:25:34;;;;;;;;;;;;;;;6.13;92.65;96768.25;30001;982;1882;-69
2024/02/28 00:26:06;;;;;;;;;;;;;;;6.11;92.56;96773.09;30001;982;1887;-71
2024/02/28 00:26:46;;;;;;;;;;;;;;;6.12;92.32;96777.41;30001;982;1882;-67
2024/02/28 00:27:22;;;;;;;;;;;;;;;6.10;92.61;96769.56;30001;984;1874;-70
2024/02/28 00:27:55;;;;;;;;;;;;;;;6.09;93.24;96773.34;30001;982;1874;-67
2024/02/28 00:28:27;;;;;;;;;;;;;;;6.10;92.76;96779.53;30001;982;1887;-71
2024/02/28 00:28:59;;;;;;;;;;;;;;;6.10;92.92;96774.16;30001;983;1882;-53
2024/02/28 00:29:31;;;;;;;;;;;;;;;6.09;92.96;96776.03;30001;983;1886;-70
2024/02/28 00:30:08;;;;;;;;;;;;;;;6.08;92.98;96777.13;30001;983;1882;-68
2024/02/28 00:30:41;;;;;;;;;;;;;;;6.07;92.89;96780.88;30001;983;1886;-71
2024/02/28 00:31:21;;;;;;;;;;;;;;;6.07;93.42;96777.37;30001;983;1882;-68
2024/02/28 00:31:52;;;;;;;;;;;;;;;6.05;93.29;96774.94;30001;983;1886;-69
2024/02/28 00:32:27;;;;;;;;;;;;;;;6.04;93.30;96776.84;30001;983;1869;-72
2024/02/28 00:32:58;;;;;;;;;;;;;;;6.03;93.33;96769.81;30001;982;1878;-69
2024/02/28 00:33:34;;;;;;;;;;;;;;;6.00;93.73;96769.56;30001;982;1882;-53
2024/02/28 00:34:08;;;;;;;;;;;;;;;6.00;93.53;96775.75;30001;982;1887;-69
2024/02/28 00:34:45;;;;;;;;;;;;;;;6.01;93.87;96773.88;30001;982;1883;-68
2024/02/28 00:35:20;;;;;;;;;;;;;;;6.00;93.42;96769.56;30001;982;1887;-69
2024/02/28 00:36:00;;;;;;;;;;;;;;;5.99;93.72;96782.22;30001;982;1883;-69
2024/02/28 00:36:35;;;;;;;;;;;;;;;5.99;93.74;96778.72;30001;985;1878;-68
2024/02/28 00:37:07;;;;;;;;;;;;;;;5.99;94.16;96779.50;30001;983;1886;-70
2024/02/28 00:37:39;;;;;;;;;;;;;;;5.98;94.21;96783.28;30001;983;1869;-53
2024/02/28 00:38:10;;;;;;;;;;;;;;;5.96;93.93;96777.34;30001;983;1841;-69
2024/02/28 00:38:43;;;;;;;;;;;;;;;5.95;94.14;96778.44;30001;983;1882;-72
2024/02/28 00:39:17;;;;;;;;;;;;;;;5.95;93.88;96772.22;30001;983;1887;-72
2024/02/28 00:39:50;;;;;;;;;;;;;;;5.95;93.98;96777.63;30001;983;1882;-71
2024/02/28 00:40:24;;;;;;;;;;;;;;;5.94;94.12;96771.41;30001;983;1887;-71
2024/02/28 00:40:56;;;;;;;;;;;;;;;5.93;94.04;96775.19;30001;982;1882;-67
2024/02/28 00:41:41;;;;;;;;;;;;;;;;;;;;;
2024/02/28 00:42:17;;;;;;;;;;;;;;;5.94;94.15;96771.41;30001;969;1896;-66
2024/02/28 00:42:55;;;;;;;;;;;;;;;5.98;93.31;96777.91;30001;982;1874;-70
2024/02/28 00:43:25;;;;;;;;;;;;;;;6.03;92.08;96775.22;30001;983;1784;-67
2024/02/28 00:43:59;;;;;;;;;;;;;;;6.03;91.37;96769.81;30001;986;1886;-53
2024/02/28 00:44:30;;;;;;;;;;;;;;;6.02;90.70;96773.59;30001;983;1882;-71
2024/02/28 00:45:01;;;;;;;;;;;;;;;5.99;90.48;96774.12;30001;983;1886;-70
2024/02/28 00:45:39;;;;;;;;;;;;;;;5.97;90.41;96770.88;30001;969;1906;-69
2024/02/28 00:46:12;;;;;;;;;;;;;;;5.95;90.73;96767.66;30001;983;1886;-69
2024/02/28 00:46:45;;;;;;;;;;;;;;;5.91;90.28;96765.75;30001;983;1882;-53
2024/02/28 00:47:26;;;;;;;;;;;;;;;5.91;90.73;96771.13;30001;983;1887;-68
2024/02/28 00:47:59;;;;;;;;;;;;;;;5.87;90.47;96770.84;30001;983;1869;-53
2024/02/28 00:48:30;;;;;;;;;;;;;;;5.86;90.08;96769.25;30001;982;1878;-53
2024/02/28 00:49:01;;;;;;;;;;;;;;;5.87;90.34;96767.34;30001;982;1882;-71
2024/02/28 00:49:36;;;;;;;;;;;;;;;5.86;90.53;96769.25;30001;982;1887;-69
2024/02/28 00:50:08;;;;;;;;;;;;;;;5.85;90.40;96767.63;30001;982;1883;-53
2024/02/28 00:50:40;;;;;;;;;;;;;;;5.84;90.48;96768.69;30001;983;1799;-72
2024/02/28 00:51:13;;;;;;;;;;;;;;;5.84;90.57;96766.00;30001;983;1869;-69
2024/02/28 00:51:48;;;;;;;;;;;;;;;5.82;90.35;96770.84;30001;983;1877;-69
2024/02/28 00:52:19;;;;;;;;;;;;;;;5.82;90.26;96767.34;30001;983;1882;-67
2024/02/28 00:52:54;;;;;;;;;;;;;;;5.81;90.48;96776.50;30001;983;1886;-68
2024/02/28 00:53:25;;;;;;;;;;;;;;;5.80;90.55;96759.53;30001;983;1882;-68
2024/02/28 00:54:21;;;;;;;;;;;;;;;5.81;91.06;96771.09;30001;987;1878;-70
2024/02/28 00:54:52;;;;;;;;;;;;;;;5.82;91.25;96768.16;30001;983;1887;-69
2024/02/28 00:55:26;;;;;;;;;;;;;;;5.85;91.46;96775.69;30001;983;1882;-70
2024/02/28 00:56:00;;;;;;;;;;;;;;;5.85;91.30;96774.88;30001;982;1887;-70
2024/02/28 00:56:34;;;;;;;;;;;;;;;5.85;91.49;96773.00;30001;982;1869;-71
2024/02/28 00:57:14;;;;;;;;;;;;;;;5.86;91.17;96771.94;30001;982;1865;-72
2024/02/28 00:57:45;;;;;;;;;;;;;;;5.85;91.73;96770.31;30001;982;1883;-53
2024/02/28 00:58:20;;;;;;;;;;;;;;;5.84;91.21;96771.38;30001;983;1886;-53
2024/02/28 00:58:56;;;;;;;;;;;;;;;5.84;91.58;96771.38;30001;983;1882;-54
2024/02/28 00:59:27;;;;;;;;;;;;;;;5.84;91.28;96776.78;30001;987;1886;-68
2024/02/28 00:59:58;;;;;;;;;;;;;;;5.84;92.04;96771.38;30001;983;1882;-73
2024/02/28 01:00:28;;;;;;;;;;;;;;;5.82;91.47;96773.53;30001;983;1886;-70
2024/02/28 01:00:59;;;;;;;;;;;;;;;5.82;91.54;96768.16;30001;983;1882;-53
2024/02/28 01:01:32;;;;;;;;;;;;;;;5.82;91.53;96776.22;30001;983;1887;-71
2024/02/28 01:02:03;;;;;;;;;;;;;;;5.82;91.94;96776.22;30001;983;1869;-70
2024/02/28 01:02:35;;;;;;;;;;;;;;;5.82;91.87;96770.84;30001;983;1878;-71
2024/02/28 01:03:08;;;;;;;;;;;;;;;5.83;91.80;96769.78;30001;983;1882;-70
2024/02/28 01:03:40;;;;;;;;;;;;;;;5.82;91.55;96768.16;30001;982;1887;-70
2024/02/28 01:04:11;;;;;;;;;;;;;;;5.81;91.93;96774.59;30001;982;1883;-69
2024/02/28 01:04:42;;;;;;;;;;;;;;;5.82;91.65;96773.53;30001;982;1887;-69
2024/02/28 01:05:13;;;;;;;;;;;;;;;5.82;91.74;96770.84;30001;982;1883;-70
2024/02/28 01:05:45;;;;;;;;;;;;;;;5.82;91.62;96773.53;30001;983;1886;-53
2024/02/28 01:06:19;;;;;;;;;;;;;;;5.81;91.65;96771.91;30001;983;1882;-70
2024/02/28 01:06:50;;;;;;;;;;;;;;;5.80;91.62;96770.28;30001;963;1906;-69
2024/02/28 01:07:21;;;;;;;;;;;;;;;5.80;91.98;96773.00;30001;983;1869;-68
2024/02/28 01:07:52;;;;;;;;;;;;;;;5.81;91.86;96771.91;30001;983;1865;-72
2024/02/28 01:08:23;;;;;;;;;;;;;;;5.80;92.08;96775.69;30001;983;1882;-71
2024/02/28 01:08:55;;;;;;;;;;;;;;;5.78;91.91;96775.13;30001;983;1887;-70
2024/02/28 01:09:26;;;;;;;;;;;;;;;5.78;92.08;96772.44;30001;983;1882;-70
2024/02/28 01:09:57;;;;;;;;;;;;;;;5.78;91.95;96777.81;30001;983;1887;-69
2024/02/28 01:10:28;;;;;;;;;;;;;;;5.79;92.28;96779.44;30001;983;1882;-68
2024/02/28 01:10:59;;;;;;;;;;;;;;;5.79;91.84;96775.94;30001;982;1887;-53
2024/02/28 01:11:30;;;;;;;;;;;;;;;5.78;92.02;96771.63;30001;982;1883;-53
2024/02/28 01:12:01;;;;;;;;;;;;;;;5.78;92.00;96777.03;30001;982;1887;-68
2024/02/28 01:12:32;;;;;;;;;;;;;;;5.78;92.27;96777.03;30001;982;1882;-68
2024/02/28 01:13:03;;;;;;;;;;;;;;;5.78;92.01;96777.81;30001;982;1874;-66
2024/02/28 01:13:34;;;;;;;;;;;;;;;5.79;92.31;96773.25;30001;983;1873;-53
2024/02/28 01:14:05;;;;;;;;;;;;;;;5.79;91.88;96774.06;30001;983;1873;-72
2024/02/28 01:14:36;;;;;;;;;;;;;;;5.81;92.35;96779.19;30001;983;1873;-53
2024/02/28 01:15:07;;;;;;;;;;;;;;;5.81;92.14;96787.25;30001;986;1886;-71
2024/02/28 01:15:44;;;;;;;;;;;;;;;5.80;92.34;96780.25;30001;983;1882;-69
2024/02/28 01:16:14;;;;;;;;;;;;;;;5.78;92.56;96783.22;30001;983;1887;-69
2024/02/28 01:16:45;;;;;;;;;;;;;;;5.78;92.43;96777.81;30001;983;1882;-69
2024/02/28 01:17:20;;;;;;;;;;;;;;;5.78;92.01;96782.41;30001;983;1887;-68
2024/02/28 01:17:50;;;;;;;;;;;;;;;5.76;92.10;96771.91;30001;982;1882;-52
2024/02/28 01:18:21;;;;;;;;;;;;;;;5.74;92.03;96779.44;30001;982;1887;-71
2024/02/28 01:18:52;;;;;;;;;;;;;;;5.73;92.20;96784.00;30001;982;1883;-71
2024/02/28 01:19:23;;;;;;;;;;;;;;;5.72;91.90;96779.69;30001;982;1874;-67
2024/02/28 01:19:54;;;;;;;;;;;;;;;5.75;92.35;96781.03;30001;982;1874;-66
2024/02/28 01:20:29;;;;;;;;;;;;;;;5.77;91.92;96776.22;30001;982;1881;-53
2024/02/28 01:21:00;;;;;;;;;;;;;;;5.79;92.29;96774.06;30001;983;1882;-67
2024/02/28 01:21:34;;;;;;;;;;;;;;;5.80;91.79;96775.69;30001;983;1886;-66
2024/02/28 01:22:05;;;;;;;;;;;;;;;5.83;91.80;96775.16;30001;983;1882;-66
2024/02/28 01:22:36;;;;;;;;;;;;;;;5.84;91.47;96776.78;30001;983;1886;-68
2024/02/28 01:23:07;;;;;;;;;;;;;;;5.82;91.41;96767.34;30001;983;1882;-71
2024/02/28 01:23:39;;;;;;;;;;;;;;;5.84;91.37;96774.06;30001;983;1887;-67
2024/02/28 01:24:09;;;;;;;;;;;;;;;5.88;90.92;96775.16;30001;975;1900;-68
2024/02/28 01:24:40;;;;;;;;;;;;;;;5.89;90.86;96776.00;30001;983;1874;-53
2024/02/28 01:25:15;;;;;;;;;;;;;;;5.88;90.99;96775.16;30001;982;1874;-70
2024/02/28 01:25:46;;;;;;;;;;;;;;;5.87;90.74;96778.94;30001;982;1887;-53
2024/02/28 01:26:20;;;;;;;;;;;;;;;5.87;91.04;96776.25;30001;984;1882;-67
2024/02/28 01:26:50;;;;;;;;;;;;;;;5.93;90.19;96769.00;30001;982;1887;-67
2024/02/28 01:27:21;;;;;;;;;;;;;;;5.96;90.16;96774.66;30001;982;1883;-70
2024/02/28 01:27:52;;;;;;;;;;;;;;;5.95;89.79;96773.03;30001;982;1887;-54
2024/02/28 01:28:23;;;;;;;;;;;;;;;5.94;89.91;96770.63;30001;983;1882;-66
2024/02/28 01:28:55;;;;;;;;;;;;;;;5.94;90.27;96773.31;30001;983;1886;-65
2024/02/28 01:29:26;;;;;;;;;;;;;;;5.93;89.71;96774.38;30001;983;1882;-53
2024/02/28 01:29:57;;;;;;;;;;;;;;;5.92;89.90;96778.16;30001;983;1873;-71
2024/02/28 01:30:28;;;;;;;;;;;;;;;5.89;90.19;96779.47;30001;983;1873;-67
2024/02/28 01:31:00;;;;;;;;;;;;;;;5.88;90.54;96777.87;30001;983;1794;-71
2024/02/28 01:31:31;;;;;;;;;;;;;;;5.85;90.40;96778.41;30001;983;1882;-71
2024/02/28 01:32:02;;;;;;;;;;;;;;;5.83;90.40;96777.84;30001;983;1887;-68
2024/02/28 01:32:33;;;;;;;;;;;;;;;5.81;90.36;96782.69;30001;982;1882;-67
2024/02/28 01:33:07;;;;;;;;;;;;;;;5.80;90.53;96780.25;30001;982;1887;-66
2024/02/28 01:33:39;;;;;;;;;;;;;;;5.81;90.95;96788.06;30001;982;1882;-67
2024/02/28 01:34:10;;;;;;;;;;;;;;;5.81;91.46;96782.69;30001;982;1887;-53
2024/02/28 01:34:41;;;;;;;;;;;;;;;5.82;91.46;96789.69;30001;982;1785;-66
2024/02/28 01:35:13;;;;;;;;;;;;;;;5.85;90.95;96781.09;30001;982;1874;-54
2024/02/28 01:35:44;;;;;;;;;;;;;;;5.87;90.90;96778.94;30001;982;1874;-67
2024/02/28 01:36:15;;;;;;;;;;;;;;;5.89;90.63;96784.87;30001;983;1886;-64
2024/02/28 01:36:46;;;;;;;;;;;;;;;5.90;90.69;96786.50;30001;983;1882;-55
2024/02/28 01:37:17;;;;;;;;;;;;;;;5.88;90.35;96785.94;30001;983;1886;-68
2024/02/28 01:37:48;;;;;;;;;;;;;;;5.86;90.56;96782.69;30001;983;1882;-70
2024/02/28 01:38:19;;;;;;;;;;;;;;;5.83;90.77;96791.31;30001;983;1886;-68
2024/02/28 01:38:50;;;;;;;;;;;;;;;5.84;90.80;96797.50;30001;979;1892;-70
2024/02/28 01:39:20;;;;;;;;;;;;;;;5.85;90.58;96786.47;30001;983;1886;-53
2024/02/28 01:39:51;;;;;;;;;;;;;;;5.84;90.76;96787.53;30001;983;1882;-53
2024/02/28 01:40:23;;;;;;;;;;;;;;;5.82;90.80;96789.69;30001;982;1873;-68
2024/02/28 01:40:53;;;;;;;;;;;;;;;5.80;90.87;96797.22;30001;982;1874;-68
2024/02/28 01:41:25;;;;;;;;;;;;;;;5.82;90.63;96797.75;30001;982;1887;-67
2024/02/28 01:41:57;;;;;;;;;;;;;;;5.83;90.84;96785.94;30001;982;1883;-53
2024/02/28 01:43:36;;;;;;;;;;;;;;;5.80;90.99;96791.84;89987;930;17000;-67
2024/02/28 01:44:07;;;;;;;;;;;;;;;5.80;90.96;96791.84;30001;983;1868;-53
2024/02/28 01:44:43;;;;;;;;;;;;;;;5.82;91.00;96803.16;30001;982;1868;-71
2024/02/28 01:45:14;;;;;;;;;;;;;;;5.83;91.20;96796.69;30001;982;1881;-68
2024/02/28 01:45:45;;;;;;;;;;;;;;;5.83;90.68;96796.69;30001;982;1864;-67
2024/02/28 01:46:35;;;;;;;;;;;;;;;5.83;90.98;96802.06;30001;982;1873;-71
2024/02/28 01:47:06;;;;;;;;;;;;;;;5.82;91.19;96805.03;30001;983;1872;-53
2024/02/28 01:47:37;;;;;;;;;;;;;;;5.80;91.37;96805.28;30001;983;1881;-68
2024/02/28 01:48:10;;;;;;;;;;;;;;;5.79;91.37;96798.28;30001;983;1876;-67
2024/02/28 01:48:41;;;;;;;;;;;;;;;5.80;91.67;96799.09;30001;983;1881;-70
2024/02/28 01:49:13;;;;;;;;;;;;;;;5.80;91.39;96808.00;30001;983;1876;-72
2024/02/28 01:49:46;;;;;;;;;;;;;;;5.77;91.91;96797.75;30001;983;1881;-70
2024/02/28 01:50:20;;;;;;;;;;;;;;;5.75;92.21;96810.66;30001;983;1877;-68
2024/02/28 01:50:51;;;;;;;;;;;;;;;5.74;92.10;96809.03;30001;983;1868;-72
2024/02/28 01:51:23;;;;;;;;;;;;;;;5.71;92.01;96804.19;30001;983;1868;-71
2024/02/28 01:51:56;;;;;;;;;;;;;;;5.70;92.06;96807.94;30001;982;1881;-68
2024/02/28 01:52:30;;;;;;;;;;;;;;;5.71;92.71;96809.56;30001;982;1877;-71
2024/02/28 01:53:01;;;;;;;;;;;;;;;5.72;92.61;96805.81;30001;982;1881;-69
2024/02/28 01:53:32;;;;;;;;;;;;;;;5.72;92.89;96803.09;30001;982;1877;-71
2024/02/28 01:54:04;;;;;;;;;;;;;;;5.71;92.86;96815.75;30001;982;1881;-68
2024/02/28 01:54:35;;;;;;;;;;;;;;;5.71;92.53;96806.87;30001;983;1876;-69
2024/02/28 01:55:08;;;;;;;;;;;;;;;5.69;92.71;96811.72;30001;983;1881;-69
2024/02/28 01:55:40;;;;;;;;;;;;;;;5.68;92.64;96815.47;30001;983;1876;-67
2024/02/28 01:56:16;;;;;;;;;;;;;;;5.71;92.84;96810.38;30001;983;1868;-55
2024/02/28 01:56:47;;;;;;;;;;;;;;;5.77;92.41;96811.22;30001;983;1868;-70
2024/02/28 01:57:20;;;;;;;;;;;;;;;5.81;91.85;96809.59;30001;983;1881;-66
2024/02/28 01:57:54;;;;;;;;;;;;;;;5.85;91.44;96799.94;30001;983;1877;-68
2024/02/28 01:58:25;;;;;;;;;;;;;;;5.87;91.58;96813.94;30001;983;1881;-67
2024/02/28 01:58:56;;;;;;;;;;;;;;;5.85;91.38;96816.09;30001;982;1877;-53
2024/02/28 01:59:28;;;;;;;;;;;;;;;5.83;91.28;96812.84;30001;982;1881;-68
2024/02/28 02:00:03;;;;;;;;;;;;;;;5.80;91.40;96810.69;30001;982;1877;-69
2024/02/28 02:00:34;;;;;;;;;;;;;;;5.80;91.44;96813.38;30001;982;1881;-70
2024/02/28 02:01:07;;;;;;;;;;;;;;;5.80;91.98;96813.38;30001;982;1877;-66
2024/02/28 02:01:38;;;;;;;;;;;;;;;5.79;91.54;96809.06;30001;982;1868;-70
2024/02/28 02:02:09;;;;;;;;;;;;;;;5.79;91.63;96817.13;30001;983;1867;-54
2024/02/28 02:02:41;;;;;;;;;;;;;;;5.78;91.63;96803.94;30001;983;1881;-70
2024/02/28 02:03:12;;;;;;;;;;;;;;;5.79;91.93;96800.19;30001;983;1876;-66
2024/02/28 02:03:46;;;;;;;;;;;;;;;5.81;92.07;96808.81;30001;983;1881;-69
2024/02/28 02:04:17;;;;;;;;;;;;;;;5.82;91.58;96805.84;30001;983;1876;-68
2024/02/28 02:04:48;;;;;;;;;;;;;;;5.83;91.58;96812.03;30001;983;1881;-66
2024/02/28 02:05:24;;;;;;;;;;;;;;;5.84;91.50;96803.69;30001;983;1877;-68
2024/02/28 02:05:55;;;;;;;;;;;;;;;5.82;91.65;96810.41;30001;983;1881;-67
2024/02/28 02:06:26;;;;;;;;;;;;;;;5.82;91.68;96811.22;30001;982;1877;-67
2024/02/28 02:06:59;;;;;;;;;;;;;;;5.83;91.95;96809.34;30001;982;1868;-68
2024/02/28 02:07:31;;;;;;;;;;;;;;;5.83;91.54;96807.47;30001;982;1868;-70
2024/02/28 02:08:02;;;;;;;;;;;;;;;5.83;92.29;96817.41;30001;982;1881;-67
2024/02/28 02:08:34;;;;;;;;;;;;;;;5.80;91.87;96813.38;30001;982;1877;-68
2024/02/28 02:09:08;;;;;;;;;;;;;;;5.78;92.21;96810.13;30001;982;1881;-68
2024/02/28 02:09:39;;;;;;;;;;;;;;;5.77;91.99;96811.22;30001;983;1876;-70
2024/02/28 02:10:12;;;;;;;;;;;;;;;5.78;92.58;96812.81;30001;983;1881;-54
2024/02/28 02:10:43;;;;;;;;;;;;;;;5.79;92.62;96814.44;30001;983;1876;-55
2024/02/28 02:11:15;;;;;;;;;;;;;;;5.79;92.12;96811.75;30001;983;1881;-53
2024/02/28 02:11:46;;;;;;;;;;;;;;;5.81;92.08;96815.00;30001;983;1876;-70
2024/02/28 02:12:17;;;;;;;;;;;;;;;5.86;92.02;96801.56;30001;983;1868;-66
2024/02/28 02:12:48;;;;;;;;;;;;;;;5.93;91.39;96812.88;30001;983;1868;-55
2024/02/28 02:13:19;;;;;;;;;;;;;;;5.93;91.48;96802.13;30001;983;1881;-70
2024/02/28 02:13:54;;;;;;;;;;;;;;;5.94;91.02;96803.72;30001;982;1877;-61
2024/02/28 02:14:25;;;;;;;;;;;;;;;5.99;90.91;96808.34;30001;982;1881;-54
2024/02/28 02:14:57;;;;;;;;;;;;;;;6.00;90.78;96808.06;30001;982;1877;-68
2024/02/28 02:15:30;;;;;;;;;;;;;;;5.94;91.35;96814.50;30001;982;1881;-67
2024/02/28 02:16:01;;;;;;;;;;;;;;;5.89;91.50;96811.78;30001;982;1877;-68
2024/02/28 02:16:33;;;;;;;;;;;;;;;5.86;91.64;96812.31;30001;983;1880;-65
2024/02/28 02:17:05;;;;;;;;;;;;;;;5.86;91.47;96820.41;30001;983;1876;-53
2024/02/28 02:17:36;;;;;;;;;;;;;;;5.88;91.60;96815.56;30001;983;1867;-53
2024/02/28 02:18:07;;;;;;;;;;;;;;;5.88;91.72;96809.38;30001;971;1880;-68
2024/02/28 02:18:39;;;;;;;;;;;;;;;5.89;91.75;96814.50;30001;983;1881;-67
2024/02/28 02:19:10;;;;;;;;;;;;;;;5.89;91.71;96817.19;30001;983;1876;-55
2024/02/28 02:19:44;;;;;;;;;;;;;;;5.89;91.51;96819.09;30001;983;1881;-70
2024/02/28 02:20:17;;;;;;;;;;;;;;;5.94;91.22;96816.38;30001;968;1898;-66
2024/02/28 02:20:54;;;;;;;;;;;;;;;5.94;91.33;96811.00;30001;983;1881;-55
2024/02/28 02:21:36;;;;;;;;;;;;;;;5.99;90.81;96817.22;30001;982;1877;-71
2024/02/28 02:22:08;;;;;;;;;;;;;;;6.04;90.47;96819.94;30001;986;1872;-71
2024/02/28 02:22:39;;;;;;;;;;;;;;;6.04;90.29;96811.84;30001;982;1868;-69
2024/02/28 02:23:12;;;;;;;;;;;;;;;6.00;90.44;96813.47;30001;982;1868;-72
2024/02/28 02:23:43;;;;;;;;;;;;;;;5.98;90.46;96814.78;30001;983;1880;-66
2024/02/28 02:24:14;;;;;;;;;;;;;;;5.97;90.75;96816.69;30001;983;1876;-69
2024/02/28 02:24:45;;;;;;;;;;;;;;;5.93;90.67;96820.16;30001;983;1881;-68
2024/02/28 02:25:16;;;;;;;;;;;;;;;5.87;90.84;96808.56;30001;983;1876;-69
2024/02/28 02:25:47;;;;;;;;;;;;;;;5.81;91.63;96817.69;30001;983;1881;-68
2024/02/28 02:26:19;;;;;;;;;;;;;;;5.78;91.81;96820.09;30001;983;1876;-55
2024/02/28 02:26:54;;;;;;;;;;;;;;;5.76;91.71;96816.84;30001;983;1881;-66
2024/02/28 02:27:28;;;;;;;;;;;;;;;5.76;92.31;96817.66;30001;983;1877;-67
2024/02/28 02:28:03;;;;;;;;;;;;;;;5.77;92.11;96821.97;30001;983;1868;-68
2024/02/28 02:28:34;;;;;;;;;;;;;;;5.79;92.08;96821.72;30001;983;1868;-67
2024/02/28 02:29:09;;;;;;;;;;;;;;;5.76;92.52;96824.94;30001;982;1881;-53
2024/02/28 02:29:40;;;;;;;;;;;;;;;5.72;92.39;96825.44;30001;982;1877;-66
2024/02/28 02:30:13;;;;;;;;;;;;;;;5.70;92.40;96818.72;30001;982;1881;-54
2024/02/28 02:30:45;;;;;;;;;;;;;;;5.68;93.00;96818.16;30001;982;1877;-65
2024/02/28 02:31:16;;;;;;;;;;;;;;;5.69;92.86;96823.28;30001;983;1880;-65
2024/02/28 02:31:46;;;;;;;;;;;;;;;5.68;93.27;96823.53;30001;983;1876;-70
2024/02/28 02:32:17;;;;;;;;;;;;;;;5.68;93.09;96826.25;30001;983;1881;-53
2024/02/28 02:32:48;;;;;;;;;;;;;;;5.69;93.54;96822.47;30001;983;1876;-68
2024/02/28 02:33:19;;;;;;;;;;;;;;;5.67;93.08;96833.50;30001;983;1868;-71
2024/02/28 02:33:50;;;;;;;;;;;;;;;5.67;93.50;96833.50;30001;983;1868;-65
2024/02/28 02:34:22;;;;;;;;;;;;;;;5.65;93.86;96829.44;30001;987;1872;-68
2024/02/28 02:34:53;;;;;;;;;;;;;;;5.68;93.82;96835.12;30001;983;1881;-54
2024/02/28 02:35:24;;;;;;;;;;;;;;;5.68;93.30;96828.94;30001;983;1877;-53
2024/02/28 02:35:55;;;;;;;;;;;;;;;5.66;93.41;96828.38;30001;983;1881;-68
2024/02/28 02:36:26;;;;;;;;;;;;;;;5.64;93.52;96828.66;30001;982;1877;-67
2024/02/28 02:36:58;;;;;;;;;;;;;;;5.66;93.63;96833.75;30001;982;1881;-69
2024/02/28 02:37:28;;;;;;;;;;;;;;;5.69;93.76;96839.44;30001;982;1877;-69
2024/02/28 02:38:00;;;;;;;;;;;;;;;5.69;93.69;96839.44;30001;982;1881;-68
2024/02/28 02:38:34;;;;;;;;;;;;;;;5.69;93.57;96838.63;30001;982;1864;-69
2024/02/28 02:39:08;;;;;;;;;;;;;;;5.67;93.91;96843.47;30001;983;1872;-65
2024/02/28 02:39:39;;;;;;;;;;;;;;;5.67;93.90;96836.19;30001;983;1876;-54
2024/02/28 02:40:10;;;;;;;;;;;;;;;5.68;93.63;96842.38;30001;983;1881;-69
2024/02/28 02:40:41;;;;;;;;;;;;;;;5.64;94.18;96842.09;30001;983;1876;-70
2024/02/28 02:41:12;;;;;;;;;;;;;;;5.62;94.29;96838.06;30001;983;1881;-67
2024/02/28 02:41:43;;;;;;;;;;;;;;;5.62;94.28;96838.06;30001;983;1876;-65
2024/02/28 02:42:14;;;;;;;;;;;;;;;5.69;94.50;96839.44;30001;983;1881;-68
2024/02/28 02:42:46;;;;;;;;;;;;;;;5.70;94.26;96840.25;30001;983;1877;-68
2024/02/28 02:43:17;;;;;;;;;;;;;;;5.67;94.29;96835.38;30001;983;1881;-69
2024/02/28 02:43:52;;;;;;;;;;;;;;;5.64;94.02;96841.28;30001;982;1864;-71
2024/02/28 02:44:24;;;;;;;;;;;;;;;5.59;94.66;96841.25;30001;982;1872;-71
2024/02/28 02:44:55;;;;;;;;;;;;;;;5.55;95.18;96842.84;30001;982;1877;-69
2024/02/28 02:45:26;;;;;;;;;;;;;;;5.52;95.26;96848.78;30001;982;1881;-71
2024/02/28 02:45:57;;;;;;;;;;;;;;;5.47;96.01;96851.44;30001;982;1877;-68
2024/02/28 02:46:29;;;;;;;;;;;;;;;5.43;95.83;96850.34;30001;983;1880;-67
2024/02/28 02:47:02;;;;;;;;;;;;;;;5.42;96.06;96843.34;30001;983;1876;-67
2024/02/28 02:47:32;;;;;;;;;;;;;;;5.39;95.99;96850.88;30001;983;1881;-72
2024/02/28 02:48:04;;;;;;;;;;;;;;;5.38;96.24;96843.06;30001;983;1876;-72
2024/02/28 02:48:35;;;;;;;;;;;;;;;5.36;96.98;96846.00;30001;983;1880;-69
2024/02/28 02:49:05;;;;;;;;;;;;;;;5.34;97.47;96847.34;30001;983;1863;-53
2024/02/28 02:49:36;;;;;;;;;;;;;;;5.32;97.31;96852.97;30001;983;1872;-68
2024/02/28 02:50:08;;;;;;;;;;;;;;;5.32;97.34;96847.59;30001;983;1877;-71
2024/02/28 02:50:38;;;;;;;;;;;;;;;5.29;98.01;96845.41;30001;982;1881;-53
2024/02/28 02:51:09;;;;;;;;;;;;;;;5.27;98.08;96847.56;30001;982;1876;-71
2024/02/28 02:51:43;;;;;;;;;;;;;;;5.27;98.17;96846.75;30001;982;1881;-67
2024/02/28 02:52:14;;;;;;;;;;;;;;;5.29;97.81;96856.19;30001;982;1877;-69
2024/02/28 02:52:48;;;;;;;;;;;;;;;5.33;97.77;96851.09;30001;982;1881;-67
2024/02/28 02:53:22;;;;;;;;;;;;;;;5.37;97.37;96852.19;30001;982;1877;-65
2024/02/28 02:53:53;;;;;;;;;;;;;;;5.38;97.19;96860.00;30001;983;1880;-68
2024/02/28 02:54:24;;;;;;;;;;;;;;;5.35;97.26;96857.84;30001;983;1863;-71
2024/02/28 02:54:55;;;;;;;;;;;;;;;5.32;97.44;96855.66;30001;983;1872;-71
2024/02/28 02:55:26;;;;;;;;;;;;;;;5.31;97.43;96858.63;30001;983;1876;-67
2024/02/28 02:56:01;;;;;;;;;;;;;;;5.29;97.46;96861.56;30001;983;1881;-69
2024/02/28 02:56:35;;;;;;;;;;;;;;;5.28;97.60;96859.94;30001;983;1876;-70
2024/02/28 02:57:06;;;;;;;;;;;;;;;5.28;97.18;96859.13;30001;983;1881;-68
2024/02/28 02:57:37;;;;;;;;;;;;;;;5.28;97.35;96859.94;30001;983;1877;-53
2024/02/28 02:58:08;;;;;;;;;;;;;;;5.27;97.71;96858.31;30001;982;1881;-72